Time;durP1;ratioP1;P1;durP2;ratioP2;P2;SDS_P1;SDS_P2;PMS_P1;PMS_P2;Temp;Humidity;BMP_temperature;BMP_pressure;BME280_temperature;BME280_humidity;BME280_pressure;Samples;Min_cycle;Max_cycle;Signal;HPM_P1;HPM_P2
2023/11/19 00:00:28;;;;;;;;;;;;;;;;;;5061396;28;20415;-83
2023/11/19 00:02:54;;;;;;;;;;;;;;;;;;5079096;28;19955;-83
2023/11/19 00:05:20;;;;;;;;;;;;;;;;;;5070109;28;19911;-83
2023/11/19 00:07:46;;;;;;;;;;;;;;;;;;5086172;28;19997;-83
2023/11/19 00:10:12;;;;;;;;;;;;;;;;;;5085808;28;19919;-84
2023/11/19 00:12:38;;;;;;;;;;;;;;;;;;5092246;28;20019;-83
2023/11/19 00:15:04;;;;;;;;;;;;;;;;;;5089692;28;19938;-83
2023/11/19 00:17:30;;;;;;;;;;;;;;;;;;5090519;28;19916;-83
2023/11/19 00:19:56;;;;;;;;;;;;;;;;;;5101994;28;19953;-83
2023/11/19 00:22:22;;;;;;;;;;;;;;;;;;5096027;28;19954;-83
2023/11/19 00:24:48;;;;;;;;;;;;;;;;;;5082771;28;19978;-83
2023/11/19 00:27:15;;;;;;;;;;;;;;;;;;5090934;28;19966;-84
2023/11/19 00:29:42;;;;;;;;;;;;;;;;;;5080219;28;20008;-84
2023/11/19 00:32:08;;;;;;;;;;;;;;;;;;5070282;28;19908;-84
2023/11/19 00:34:34;;;;;;;;;;;;;;;;;;5091876;28;19908;-84
2023/11/19 00:37:00;;;;;;;;;;;;;;;;;;5096454;28;19914;-84
2023/11/19 00:39:26;;;;;;;;;;;;;;;;;;5091448;28;19918;-84
2023/11/19 00:41:52;;;;;;;;;;;;;;;;;;5097515;28;19927;-84
2023/11/19 00:44:19;;;;;;;;;;;;;;;;;;5086930;28;19970;-83
2023/11/19 00:46:45;;;;;;;;;;;;;;;;;;5095277;28;19912;-84
2023/11/19 00:49:11;;;;;;;;;;;;;;;;;;5067202;28;19912;-83
2023/11/19 00:51:37;;;;;;;;;;;;;;;;;;5094594;28;19912;-83
2023/11/19 00:54:03;;;;;;;;;;;;;;;;;;5093718;28;19979;-83
2023/11/19 00:56:29;;;;;;;;;;;;;;;;;;5078677;28;19981;-83
2023/11/19 00:58:55;;;;;;;;;;;;;;;;;;5059195;28;19909;-83
2023/11/19 01:01:22;;;;;;;;;;;;;;;;;;5092743;28;20433;-84
2023/11/19 01:03:47;;;;;;;;;;;;;;;;;;5076294;28;19908;-84
2023/11/19 01:06:15;;;;;;;;;;;;;;;;;;5100701;28;20304;-83
2023/11/19 01:08:41;;;;;;;;;;;;;;;;;;5090249;28;19999;-84
2023/11/19 01:11:08;;;;;;;;;;;;;;;;;;5082644;28;19919;-83
2023/11/19 01:13:34;;;;;;;;;;;;;;;;;;5086632;28;19930;-83
2023/11/19 01:16:02;;;;;;;;;;;;;;;;;;5090000;28;20391;-83
2023/11/19 01:18:28;;;;;;;;;;;;;;;;;;5084049;28;20239;-83
2023/11/19 01:20:54;;;;;;;;;;;;;;;;;;5085482;28;19908;-83
2023/11/19 01:23:19;;;;;;;;;;;;;;;;;;5087314;28;20227;-83
2023/11/19 01:25:45;;;;;;;;;;;;;;;;;;5092537;28;19947;-82
2023/11/19 01:28:11;;;;;;;;;;;;;;;;;;5090419;28;19919;-83
2023/11/19 01:30:37;;;;;;;;;;;;;;;;;;5101621;28;20101;-83
2023/11/19 01:33:03;;;;;;;;;;;;;;;;;;5092030;28;19935;-83
2023/11/19 01:35:29;;;;;;;;;;;;;;;;;;5087244;28;20481;-83
2023/11/19 01:37:55;;;;;;;;;;;;;;;;;;5091181;28;19916;-83
2023/11/19 01:40:21;;;;;;;;;;;;;;;;;;5083007;28;20032;-82
2023/11/19 01:42:49;;;;;;;;;;;;;;;;;;5066797;28;19973;-84
2023/11/19 01:45:15;;;;;;;;;;;;;;;;;;5098989;28;20056;-83
2023/11/19 01:47:41;;;;;;;;;;;;;;;;;;5085445;28;20375;-83
2023/11/19 01:50:07;;;;;;;;;;;;;;;;;;5087182;28;20528;-83
2023/11/19 01:52:33;;;;;;;;;;;;;;;;;;5092690;28;20414;-83
2023/11/19 01:54:59;;;;;;;;;;;;;;;;;;5102025;28;19955;-83
2023/11/19 01:57:25;;;;;;;;;;;;;;;;;;5103535;28;20373;-83
2023/11/19 01:59:51;;;;;;;;;;;;;;;;;;5083539;28;20422;-84
2023/11/19 02:02:20;;;;;;;;;;;;;;;;;;5083505;28;20530;-83
2023/11/19 02:04:46;;;;;;;;;;;;;;;;;;5063102;28;19919;-84
2023/11/19 02:07:14;;;;;;;;;;;;;;;;;;5085530;28;19924;-83
2023/11/19 02:09:40;;;;;;;;;;;;;;;;;;5077327;28;20130;-83
2023/11/19 02:12:06;;;;;;;;;;;;;;;;;;5091156;28;19944;-83
2023/11/19 02:14:32;;;;;;;;;;;;;;;;;;5096259;28;19947;-83
2023/11/19 02:16:58;;;;;;;;;;;;;;;;;;5076506;28;19926;-83
2023/11/19 02:19:24;;;;;;;;;;;;;;;;;;5063161;28;19985;-83
2023/11/19 02:21:50;;;;;;;;;;;;;;;;;;5092611;28;20373;-83
2023/11/19 02:24:16;;;;;;;;;;;;;;;;;;5080235;28;20078;-83
2023/11/19 02:26:42;;;;;;;;;;;;;;;;;;5094173;28;19966;-83
2023/11/19 02:29:08;;;;;;;;;;;;;;;;;;5077101;28;19958;-83
2023/11/19 02:31:34;;;;;;;;;;;;;;;;;;5092748;28;19970;-83
2023/11/19 02:34:02;;;;;;;;;;;;;;;;;;5090667;28;19930;-83
2023/11/19 02:36:28;;;;;;;;;;;;;;;;;;5087023;28;19947;-83
2023/11/19 02:38:54;;;;;;;;;;;;;;;;;;5082220;28;19951;-82
2023/11/19 02:41:20;;;;;;;;;;;;;;;;;;5087338;28;19915;-83
2023/11/19 02:43:48;;;;;;;;;;;;;;;;;;5064526;28;20342;-83
2023/11/19 02:46:15;;;;;;;;;;;;;;;;;;5078240;28;19944;-83
2023/11/19 02:48:41;;;;;;;;;;;;;;;;;;5086523;28;20285;-83
2023/11/19 02:51:10;;;;;;;;;;;;;;;;;;5089296;28;19916;-83
2023/11/19 02:53:39;;;;;;;;;;;;;;;;;;5084921;28;19916;-83
2023/11/19 02:56:25;;;;;;;;;;;;;;;;;;5081445;28;19923;-84
2023/11/19 02:58:51;;;;;;;;;;;;;;;;;;5079904;28;20255;-83
2023/11/19 03:01:23;;;;;;;;;;;;;;;;;;5094846;28;19939;-82
2023/11/19 03:03:54;;;;;;;;;;;;;;;;;;5081439;28;19965;-83
2023/11/19 03:06:20;;;;;;;;;;;;;;;;;;5099062;28;19985;-83
2023/11/19 03:08:46;;;;;;;;;;;;;;;;;;5095630;28;20280;-82
2023/11/19 03:11:12;;;;;;;;;;;;;;;;;;5104234;28;19961;-84
2023/11/19 03:13:38;;;;;;;;;;;;;;;;;;5085632;28;19974;-84
2023/11/19 03:16:04;;;;;;;;;;;;;;;;;;5080284;28;20374;-83
2023/11/19 03:18:30;;;;;;;;;;;;;;;;;;5090061;28;19962;-83
2023/11/19 03:20:58;;;;;;;;;;;;;;;;;;5061283;28;19954;-83
2023/11/19 03:23:27;;;;;;;;;;;;;;;;;;5094057;28;19983;-82
2023/11/19 03:25:53;;;;;;;;;;;;;;;;;;5093943;28;19943;-79
2023/11/19 03:28:19;;;;;;;;;;;;;;;;;;5095332;28;19951;-81
2023/11/19 03:30:45;;;;;;;;;;;;;;;;;;5095551;28;19943;-80
2023/11/19 03:33:11;;;;;;;;;;;;;;;;;;5083281;28;19912;-80
2023/11/19 03:35:37;;;;;;;;;;;;;;;;;;5083117;28;19912;-79
2023/11/19 03:38:03;;;;;;;;;;;;;;;;;;5086414;28;19973;-80
2023/11/19 03:40:29;;;;;;;;;;;;;;;;;;5091370;28;20574;-81
2023/11/19 03:42:55;;;;;;;;;;;;;;;;;;5087508;28;19915;-80
2023/11/19 03:45:21;;;;;;;;;;;;;;;;;;5089865;28;19943;-80
2023/11/19 03:47:49;;;;;;;;;;;;;;;;;;5087879;28;19971;-82
2023/11/19 03:50:15;;;;;;;;;;;;;;;;;;5088950;28;19922;-81
2023/11/19 03:52:41;;;;;;;;;;;;;;;;;;5100178;28;19951;-82
2023/11/19 03:55:08;;;;;;;;;;;;;;;;;;5094300;28;19993;-82
2023/11/19 03:57:34;;;;;;;;;;;;;;;;;;5089675;28;19912;-82
2023/11/19 04:00:03;;;;;;;;;;;;;;;;;;5092874;28;19962;-80
2023/11/19 04:02:29;;;;;;;;;;;;;;;;;;5088527;28;19927;-83
2023/11/19 04:04:55;;;;;;;;;;;;;;;;;;5083224;28;20344;-82
2023/11/19 04:07:21;;;;;;;;;;;;;;;;;;5082288;28;19922;-80
2023/11/19 04:09:47;;;;;;;;;;;;;;;;;;5091525;28;19995;-82
2023/11/19 04:12:13;;;;;;;;;;;;;;;;;;5079871;28;19958;-81
2023/11/19 04:14:40;;;;;;;;;;;;;;;;;;5087788;28;20005;-81
2023/11/19 04:17:06;;;;;;;;;;;;;;;;;;5083966;28;19908;-81
2023/11/19 04:19:32;;;;;;;;;;;;;;;;;;5106792;28;19915;-81
2023/11/19 04:21:58;;;;;;;;;;;;;;;;;;5096596;28;19924;-81
2023/11/19 04:24:24;;;;;;;;;;;;;;;;;;5094204;28;19999;-81
2023/11/19 04:26:50;;;;;;;;;;;;;;;;;;5096825;28;19955;-82
2023/11/19 04:29:19;;;;;;;;;;;;;;;;;;5096454;28;19939;-81
2023/11/19 04:31:45;;;;;;;;;;;;;;;;;;5089567;28;19912;-84
2023/11/19 04:34:11;;;;;;;;;;;;;;;;;;5097634;28;20434;-84
2023/11/19 04:36:37;;;;;;;;;;;;;;;;;;5067295;28;19953;-84
2023/11/19 04:39:08;;;;;;;;;;;;;;;;;;5093696;28;20042;-83
2023/11/19 04:41:34;;;;;;;;;;;;;;;;;;5087140;28;20407;-83
2023/11/19 04:44:00;;;;;;;;;;;;;;;;;;5089909;28;20010;-83
2023/11/19 04:46:26;;;;;;;;;;;;;;;;;;5090379;28;19916;-84
2023/11/19 04:48:52;;;;;;;;;;;;;;;;;;5099266;28;19963;-84
2023/11/19 04:51:18;;;;;;;;;;;;;;;;;;5090249;28;19979;-85
2023/11/19 04:53:44;;;;;;;;;;;;;;;;;;5095949;28;19974;-85
2023/11/19 04:56:10;;;;;;;;;;;;;;;;;;5086282;28;19962;-85
2023/11/19 04:58:37;;;;;;;;;;;;;;;;;;5088396;28;19927;-85
2023/11/19 05:01:03;;;;;;;;;;;;;;;;;;5090877;28;19916;-85
2023/11/19 05:03:29;;;;;;;;;;;;;;;;;;5100115;28;19923;-84
2023/11/19 05:05:55;;;;;;;;;;;;;;;;;;5104400;28;19923;-85
2023/11/19 05:08:21;;;;;;;;;;;;;;;;;;5091621;28;19918;-84
2023/11/19 05:10:47;;;;;;;;;;;;;;;;;;5102625;28;19908;-84
2023/11/19 05:13:12;;;;;;;;;;;;;;;;;;5091025;28;19916;-84
2023/11/19 05:15:38;;;;;;;;;;;;;;;;;;5086113;28;20307;-84
2023/11/19 05:18:04;;;;;;;;;;;;;;;;;;5087657;28;20014;-84
2023/11/19 05:20:30;;;;;;;;;;;;;;;;;;5092119;28;20324;-85
2023/11/19 05:22:56;;;;;;;;;;;;;;;;;;5083428;28;19920;-84
2023/11/19 05:25:22;;;;;;;;;;;;;;;;;;5082415;28;19924;-84
2023/11/19 05:27:48;;;;;;;;;;;;;;;;;;5084708;28;19946;-84
2023/11/19 05:30:15;;;;;;;;;;;;;;;;;;5086458;28;20382;-84
2023/11/19 05:32:41;;;;;;;;;;;;;;;;;;5090961;28;19951;-84
2023/11/19 05:35:08;;;;;;;;;;;;;;;;;;5081813;28;19947;-84
2023/11/19 05:37:34;;;;;;;;;;;;;;;;;;5086524;28;20542;-84
2023/11/19 05:40:03;;;;;;;;;;;;;;;;;;5082027;28;19908;-84
2023/11/19 05:42:29;;;;;;;;;;;;;;;;;;5084744;28;19912;-89
2023/11/19 05:44:54;;;;;;;;;;;;;;;;;;5090656;28;20087;-90
2023/11/19 05:47:20;;;;;;;;;;;;;;;;;;5068386;28;20018;-87
2023/11/19 05:49:46;;;;;;;;;;;;;;;;;;5085380;28;19959;-87
2023/11/19 05:52:12;;;;;;;;;;;;;;;;;;5078890;28;19962;-88
2023/11/19 05:54:38;;;;;;;;;;;;;;;;;;5093806;28;19947;-89
2023/11/19 05:57:04;;;;;;;;;;;;;;;;;;5090744;28;19951;-88
2023/11/19 05:59:30;;;;;;;;;;;;;;;;;;5087909;28;19924;-88
2023/11/19 06:01:56;;;;;;;;;;;;;;;;;;5075949;28;19951;-88
2023/11/19 06:04:22;;;;;;;;;;;;;;;;;;5090114;28;20012;-89
2023/11/19 06:06:48;;;;;;;;;;;;;;;;;;5077561;28;19959;-88
2023/11/19 06:09:14;;;;;;;;;;;;;;;;;;5091581;28;19983;-87
2023/11/19 06:11:40;;;;;;;;;;;;;;;;;;5092802;28;20032;-86
2023/11/19 06:14:07;;;;;;;;;;;;;;;;;;5087031;28;19947;-88
2023/11/19 06:16:33;;;;;;;;;;;;;;;;;;5079376;28;19988;-89
2023/11/19 06:18:59;;;;;;;;;;;;;;;;;;5094005;28;19969;-87
2023/11/19 06:21:25;;;;;;;;;;;;;;;;;;5080348;28;19908;-88
2023/11/19 06:23:53;;;;;;;;;;;;;;;;;;5091446;28;19991;-89
2023/11/19 06:26:19;;;;;;;;;;;;;;;;;;5093083;28;19985;-87
2023/11/19 06:28:46;;;;;;;;;;;;;;;;;;5078773;28;19967;-88
2023/11/19 06:31:14;;;;;;;;;;;;;;;;;;5084628;28;20031;-89
2023/11/19 06:33:40;;;;;;;;;;;;;;;;;;5098671;28;20421;-88
2023/11/19 06:36:05;;;;;;;;;;;;;;;;;;5075710;28;19999;-87
2023/11/19 06:38:31;;;;;;;;;;;;;;;;;;5087145;28;19939;-86
2023/11/19 06:40:57;;;;;;;;;;;;;;;;;;5095994;28;19956;-88
2023/11/19 06:43:23;;;;;;;;;;;;;;;;;;5084965;28;19947;-87
2023/11/19 06:45:49;;;;;;;;;;;;;;;;;;5081736;28;20000;-87
2023/11/19 06:48:15;;;;;;;;;;;;;;;;;;5088642;28;20009;-88
2023/11/19 06:50:41;;;;;;;;;;;;;;;;;;5083330;28;19956;-88
2023/11/19 06:53:10;;;;;;;;;;;;;;;;;;5066756;28;20047;-84
2023/11/19 06:55:36;;;;;;;;;;;;;;;;;;5088962;28;20295;-83
2023/11/19 06:58:05;;;;;;;;;;;;;;;;;;5092224;28;19912;-83
2023/11/19 07:00:32;;;;;;;;;;;;;;;;;;5088549;28;19916;-83
2023/11/19 07:02:58;;;;;;;;;;;;;;;;;;5099982;28;19919;-83
2023/11/19 07:05:24;;;;;;;;;;;;;;;;;;5097912;28;19912;-83
2023/11/19 07:07:50;;;;;;;;;;;;;;;;;;5088982;28;20050;-83
2023/11/19 07:10:16;;;;;;;;;;;;;;;;;;5086391;28;19908;-83
2023/11/19 07:12:42;;;;;;;;;;;;;;;;;;5104385;28;19970;-83
2023/11/19 07:15:08;;;;;;;;;;;;;;;;;;5076128;28;19970;-84
2023/11/19 07:17:35;;;;;;;;;;;;;;;;;;5077285;28;20411;-83
2023/11/19 07:20:01;;;;;;;;;;;;;;;;;;5087145;28;19953;-83
2023/11/19 07:22:29;;;;;;;;;;;;;;;;;;5063696;28;19947;-83
2023/11/19 07:24:55;;;;;;;;;;;;;;;;;;5060063;28;20471;-83
2023/11/19 07:27:21;;;;;;;;;;;;;;;;;;5066580;28;19935;-83
2023/11/19 07:29:46;;;;;;;;;;;;;;;;;;5081799;28;20023;-83
2023/11/19 07:32:13;;;;;;;;;;;;;;;;;;5094969;28;20501;-83
2023/11/19 07:34:39;;;;;;;;;;;;;;;;;;5080329;28;19908;-83
2023/11/19 07:37:05;;;;;;;;;;;;;;;;;;5087246;28;19919;-83
2023/11/19 07:39:31;;;;;;;;;;;;;;;;;;5089065;28;20031;-83
2023/11/19 07:41:57;;;;;;;;;;;;;;;;;;5083530;28;20331;-83
2023/11/19 07:44:24;;;;;;;;;;;;;;;;;;5091660;28;19988;-83
2023/11/19 07:46:50;;;;;;;;;;;;;;;;;;5074810;28;19923;-83
2023/11/19 07:49:16;;;;;;;;;;;;;;;;;;5083678;28;19909;-83
2023/11/19 07:51:42;;;;;;;;;;;;;;;;;;5085898;28;20059;-83
2023/11/19 07:54:08;;;;;;;;;;;;;;;;;;5082641;28;20397;-83
2023/11/19 07:56:35;;;;;;;;;;;;;;;;;;5089382;28;19911;-83
2023/11/19 07:59:01;;;;;;;;;;;;;;;;;;5103156;28;19923;-82
2023/11/19 08:01:27;;;;;;;;;;;;;;;;;;5091113;28;19958;-82
2023/11/19 08:03:53;;;;;;;;;;;;;;;;;;5101661;28;19967;-80
2023/11/19 08:06:19;;;;;;;;;;;;;;;;;;5081889;28;19920;-82
2023/11/19 08:08:45;;;;;;;;;;;;;;;;;;5084525;28;19954;-82
2023/11/19 08:11:11;;;;;;;;;;;;;;;;;;5069080;28;19958;-85
2023/11/19 08:13:36;;;;;;;;;;;;;;;;;;5093254;28;19951;-83
2023/11/19 08:16:02;;;;;;;;;;;;;;;;;;5084945;28;20016;-83
2023/11/19 08:18:28;;;;;;;;;;;;;;;;;;5088885;28;19955;-85
2023/11/19 08:20:56;;;;;;;;;;;;;;;;;;5085617;28;19963;-86
2023/11/19 08:23:24;;;;;;;;;;;;;;;;;;5101694;28;19987;-81
2023/11/19 08:25:50;;;;;;;;;;;;;;;;;;5089285;28;19920;-83
2023/11/19 08:28:16;;;;;;;;;;;;;;;;;;5073689;28;19939;-79
2023/11/19 08:30:43;;;;;;;;;;;;;;;;;;5087154;28;19951;-84
2023/11/19 08:33:09;;;;;;;;;;;;;;;;;;5070979;28;19907;-85
2023/11/19 08:35:35;;;;;;;;;;;;;;;;;;5088430;28;20396;-86
2023/11/19 08:38:01;;;;;;;;;;;;;;;;;;5074194;28;19939;-84
2023/11/19 08:40:27;;;;;;;;;;;;;;;;;;5067719;28;19950;-83
2023/11/19 08:42:53;;;;;;;;;;;;;;;;;;5087747;28;19970;-83
2023/11/19 08:45:19;;;;;;;;;;;;;;;;;;5090699;28;20052;-84
2023/11/19 08:47:45;;;;;;;;;;;;;;;;;;5089738;28;20009;-84
2023/11/19 08:50:11;;;;;;;;;;;;;;;;;;5098380;28;19946;-85
2023/11/19 08:52:37;;;;;;;;;;;;;;;;;;5094732;28;19943;-86
2023/11/19 08:55:05;;;;;;;;;;;;;;;;;;5081161;28;19958;-84
2023/11/19 08:57:31;;;;;;;;;;;;;;;;;;5099762;28;19912;-84
2023/11/19 08:59:57;;;;;;;;;;;;;;;;;;5093274;28;19908;-84
2023/11/19 09:02:23;;;;;;;;;;;;;;;;;;5077358;28;19956;-84
2023/11/19 09:04:48;;;;;;;;;;;;;;;;;;5085648;28;19947;-84
2023/11/19 09:07:14;;;;;;;;;;;;;;;;;;5088753;28;19924;-84
2023/11/19 09:09:40;;;;;;;;;;;;;;;;;;5087836;28;19962;-85
2023/11/19 09:12:07;;;;;;;;;;;;;;;;;;5096414;28;19935;-86
2023/11/19 09:14:33;;;;;;;;;;;;;;;;;;5081571;28;20284;-85
2023/11/19 09:16:59;;;;;;;;;;;;;;;;;;5084769;28;19970;-84
2023/11/19 09:19:26;;;;;;;;;;;;;;;;;;5065320;28;19912;-84
2023/11/19 09:21:52;;;;;;;;;;;;;;;;;;5076676;28;20005;-84
2023/11/19 09:24:18;;;;;;;;;;;;;;;;;;5087450;28;20382;-85
2023/11/19 09:26:44;;;;;;;;;;;;;;;;;;5066981;28;19916;-84
2023/11/19 09:29:10;;;;;;;;;;;;;;;;;;5076757;28;19974;-84
2023/11/19 09:31:36;;;;;;;;;;;;;;;;;;5080641;28;19939;-83
2023/11/19 09:34:02;;;;;;;;;;;;;;;;;;5078838;28;20035;-84
2023/11/19 09:36:28;;;;;;;;;;;;;;;;;;5086643;28;19908;-84
2023/11/19 09:38:54;;;;;;;;;;;;;;;;;;5085036;28;19943;-85
2023/11/19 09:41:20;;;;;;;;;;;;;;;;;;5093386;28;20003;-86
2023/11/19 09:43:46;;;;;;;;;;;;;;;;;;5100621;27;20007;-84
2023/11/19 09:46:12;;;;;;;;;;;;;;;;;;5086459;28;19962;-85
2023/11/19 09:48:38;;;;;;;;;;;;;;;;;;5091161;28;19947;-84
2023/11/19 09:51:04;;;;;;;;;;;;;;;;;;5083297;28;20342;-85
2023/11/19 09:53:30;;;;;;;;;;;;;;;;;;5084261;28;20042;-85
2023/11/19 09:55:55;;;;;;;;;;;;;;;;;;5083507;28;19951;-84
2023/11/19 09:58:21;;;;;;;;;;;;;;;;;;5077324;28;20362;-84
2023/11/19 10:00:47;;;;;;;;;;;;;;;;;;5067956;28;20390;-85
2023/11/19 10:03:13;;;;;;;;;;;;;;;;;;5081499;28;19947;-83
2023/11/19 10:05:40;;;;;;;;;;;;;;;;;;5082543;28;20005;-84
2023/11/19 10:08:06;;;;;;;;;;;;;;;;;;5076747;28;19920;-84
2023/11/19 10:10:32;;;;;;;;;;;;;;;;;;5081956;28;20464;-85
2023/11/19 10:13:00;;;;;;;;;;;;;;;;;;5077901;28;19962;-83
2023/11/19 10:15:26;;;;;;;;;;;;;;;;;;5089374;28;19911;-83
2023/11/19 10:17:52;;;;;;;;;;;;;;;;;;5075120;28;19916;-83
2023/11/19 10:20:18;;;;;;;;;;;;;;;;;;5078472;28;19950;-84
2023/11/19 10:22:44;;;;;;;;;;;;;;;;;;5086192;28;20399;-85
2023/11/19 10:25:10;;;;;;;;;;;;;;;;;;5088835;28;19943;-86
2023/11/19 10:27:36;;;;;;;;;;;;;;;;;;5077170;28;19952;-85
2023/11/19 10:30:02;;;;;;;;;;;;;;;;;;5058286;28;19939;-85
2023/11/19 10:32:28;;;;;;;;;;;;;;;;;;5081317;28;19962;-85
2023/11/19 10:34:54;;;;;;;;;;;;;;;;;;5076764;28;19999;-85
2023/11/19 10:37:20;;;;;;;;;;;;;;;;;;5081954;28;19951;-87
2023/11/19 10:39:47;;;;;;;;;;;;;;;;;;5069960;28;21148;-83
2023/11/19 10:42:13;;;;;;;;;;;;;;;;;;5087567;28;20004;-85
2023/11/19 10:44:39;;;;;;;;;;;;;;;;;;5085615;28;19947;-87
2023/11/19 10:47:05;;;;;;;;;;;;;;;;;;5092781;28;19997;-88
2023/11/19 10:49:31;;;;;;;;;;;;;;;;;;5073237;28;20060;-83
2023/11/19 10:51:57;;;;;;;;;;;;;;;;;;5080531;28;19916;-87
2023/11/19 10:54:23;;;;;;;;;;;;;;;;;;5084468;28;19947;-87
2023/11/19 10:56:49;;;;;;;;;;;;;;;;;;5063449;28;19947;-88
2023/11/19 10:59:15;;;;;;;;;;;;;;;;;;5087516;28;19955;-86
2023/11/19 11:01:41;;;;;;;;;;;;;;;;;;5086910;28;19932;-83
2023/11/19 11:04:08;;;;;;;;;;;;;;;;;;5069832;28;19912;-88
2023/11/19 11:06:34;;;;;;;;;;;;;;;;;;5078389;28;19923;-81
2023/11/19 11:09:00;;;;;;;;;;;;;;;;;;5089843;28;20276;-87
2023/11/19 11:11:26;;;;;;;;;;;;;;;;;;5082910;28;20493;-89
2023/11/19 11:13:52;;;;;;;;;;;;;;;;;;5060278;28;19955;-89
2023/11/19 11:16:18;;;;;;;;;;;;;;;;;;5079802;28;19908;-88
2023/11/19 11:18:44;;;;;;;;;;;;;;;;;;5086292;28;19912;-89
2023/11/19 11:21:10;;;;;;;;;;;;;;;;;;5089021;28;20370;-89
2023/11/19 11:23:36;;;;;;;;;;;;;;;;;;5071566;28;19912;-89
2023/11/19 11:26:02;;;;;;;;;;;;;;;;;;5100113;28;19923;-89
2023/11/19 11:28:28;;;;;;;;;;;;;;;;;;5098091;28;19919;-88
2023/11/19 11:30:54;;;;;;;;;;;;;;;;;;5092533;28;20043;-89
2023/11/19 11:33:20;;;;;;;;;;;;;;;;;;5104486;28;19907;-88
2023/11/19 11:35:46;;;;;;;;;;;;;;;;;;5094090;28;19943;-89
2023/11/19 11:38:12;;;;;;;;;;;;;;;;;;5089930;28;20018;-90
2023/11/19 11:40:38;;;;;;;;;;;;;;;;;;5072372;28;20002;-87
2023/11/19 11:43:05;;;;;;;;;;;;;;;;;;5084832;28;19998;-87
2023/11/19 11:45:31;;;;;;;;;;;;;;;;;;5086088;28;20334;-86
2023/11/19 11:47:57;;;;;;;;;;;;;;;;;;5068816;28;19928;-86
2023/11/19 11:50:22;;;;;;;;;;;;;;;;;;5085029;28;19922;-87
2023/11/19 11:52:48;;;;;;;;;;;;;;;;;;5093751;28;19978;-87
2023/11/19 11:55:14;;;;;;;;;;;;;;;;;;5095131;28;19946;-87
2023/11/19 11:57:41;;;;;;;;;;;;;;;;;;5096537;28;19961;-86
2023/11/19 12:00:08;;;;;;;;;;;;;;;;;;5076832;28;19911;-87
2023/11/19 12:02:34;;;;;;;;;;;;;;;;;;5089196;28;19912;-86
2023/11/19 12:05:03;;;;;;;;;;;;;;;;;;5091990;28;20004;-85
2023/11/19 12:07:29;;;;;;;;;;;;;;;;;;5081235;28;20310;-86
2023/11/19 12:09:55;;;;;;;;;;;;;;;;;;5092681;28;19937;-84
2023/11/19 12:12:21;;;;;;;;;;;;;;;;;;5097564;28;19915;-86
2023/11/19 12:14:47;;;;;;;;;;;;;;;;;;5091933;28;19912;-87
2023/11/19 12:17:13;;;;;;;;;;;;;;;;;;5064378;28;19971;-84
2023/11/19 12:19:39;;;;;;;;;;;;;;;;;;5095439;28;19950;-86
2023/11/19 12:22:05;;;;;;;;;;;;;;;;;;5094255;28;20300;-85
2023/11/19 12:24:31;;;;;;;;;;;;;;;;;;5095046;28;20335;-85
2023/11/19 12:26:58;;;;;;;;;;;;;;;;;;5097030;28;19954;-85
2023/11/19 12:29:24;;;;;;;;;;;;;;;;;;5110550;28;19956;-85
2023/11/19 12:31:50;;;;;;;;;;;;;;;;;;5109866;28;20430;-85
2023/11/19 12:34:17;;;;;;;;;;;;;;;;;;5081138;28;20011;-86
2023/11/19 12:36:43;;;;;;;;;;;;;;;;;;5092799;28;19991;-88
2023/11/19 12:39:09;;;;;;;;;;;;;;;;;;5095185;28;19955;-88
2023/11/19 12:41:35;;;;;;;;;;;;;;;;;;5090332;28;20144;-85
2023/11/19 12:44:01;;;;;;;;;;;;;;;;;;5085791;28;20125;-87
2023/11/19 12:46:27;;;;;;;;;;;;;;;;;;5085716;28;19951;-88
2023/11/19 12:48:53;;;;;;;;;;;;;;;;;;5092502;28;19955;-86
2023/11/19 12:51:19;;;;;;;;;;;;;;;;;;5093490;28;19962;-87
2023/11/19 12:53:45;;;;;;;;;;;;;;;;;;5085459;28;19915;-87
2023/11/19 12:56:11;;;;;;;;;;;;;;;;;;5080725;28;19944;-86
2023/11/19 12:58:38;;;;;;;;;;;;;;;;;;5087753;28;19946;-88
2023/11/19 13:01:05;;;;;;;;;;;;;;;;;;5088382;28;20316;-86
2023/11/19 13:03:31;;;;;;;;;;;;;;;;;;5089166;28;19918;-86
2023/11/19 13:05:58;;;;;;;;;;;;;;;;;;5101533;28;20277;-85
2023/11/19 13:08:24;;;;;;;;;;;;;;;;;;5096277;28;19915;-84
2023/11/19 13:10:50;;;;;;;;;;;;;;;;;;5085318;28;19959;-84
2023/11/19 13:13:16;;;;;;;;;;;;;;;;;;5093697;28;20300;-82
2023/11/19 13:15:44;;;;;;;;;;;;;;;;;;5095889;28;19951;-83
2023/11/19 13:18:10;;;;;;;;;;;;;;;;;;5093057;28;19908;-84
2023/11/19 13:20:36;;;;;;;;;;;;;;;;;;5088527;28;19947;-83
2023/11/19 13:23:02;;;;;;;;;;;;;;;;;;5087271;28;19947;-83
2023/11/19 13:25:28;;;;;;;;;;;;;;;;;;5093615;28;19986;-83
2023/11/19 13:27:54;;;;;;;;;;;;;;;;;;5099805;28;19915;-83
2023/11/19 13:30:20;;;;;;;;;;;;;;;;;;5081437;28;19908;-83
2023/11/19 13:32:46;;;;;;;;;;;;;;;;;;5095665;28;19974;-86
2023/11/19 13:35:12;;;;;;;;;;;;;;;;;;5086598;28;19981;-85
2023/11/19 13:37:38;;;;;;;;;;;;;;;;;;5095992;28;19907;-83
2023/11/19 13:40:04;;;;;;;;;;;;;;;;;;5095177;28;20000;-86
2023/11/19 13:42:30;;;;;;;;;;;;;;;;;;5095828;28;20016;-87
2023/11/19 13:44:56;;;;;;;;;;;;;;;;;;5102115;28;19943;-88
2023/11/19 13:47:22;;;;;;;;;;;;;;;;;;5100745;28;20341;-87
2023/11/19 13:49:48;;;;;;;;;;;;;;;;;;5090819;28;19959;-87
2023/11/19 13:52:14;;;;;;;;;;;;;;;;;;5097400;28;19947;-83
2023/11/19 13:54:40;;;;;;;;;;;;;;;;;;5090394;28;19954;-86
2023/11/19 13:57:06;;;;;;;;;;;;;;;;;;5069863;28;20303;-83
2023/11/19 13:59:34;;;;;;;;;;;;;;;;;;5101638;28;20010;-83
2023/11/19 14:02:00;;;;;;;;;;;;;;;;;;5082571;28;19911;-84
2023/11/19 14:04:26;;;;;;;;;;;;;;;;;;5077462;28;19970;-85
2023/11/19 14:06:55;;;;;;;;;;;;;;;;;;5105494;28;19958;-84
2023/11/19 14:09:21;;;;;;;;;;;;;;;;;;5102934;28;20011;-84
2023/11/19 14:11:47;;;;;;;;;;;;;;;;;;5106135;28;19984;-86
2023/11/19 14:14:13;;;;;;;;;;;;;;;;;;5095150;28;19926;-85
2023/11/19 14:16:40;;;;;;;;;;;;;;;;;;5098432;28;19959;-83
2023/11/19 14:19:05;;;;;;;;;;;;;;;;;;5095385;28;20312;-83
2023/11/19 14:21:31;;;;;;;;;;;;;;;;;;5079486;28;19962;-83
2023/11/19 14:23:58;;;;;;;;;;;;;;;;;;5078069;28;19943;-85
2023/11/19 14:26:24;;;;;;;;;;;;;;;;;;5085477;28;19998;-83
2023/11/19 14:28:50;;;;;;;;;;;;;;;;;;5083254;28;20404;-86
2023/11/19 14:31:16;;;;;;;;;;;;;;;;;;5089956;28;20022;-88
2023/11/19 14:33:42;;;;;;;;;;;;;;;;;;5062650;28;20500;-88
2023/11/19 14:36:08;;;;;;;;;;;;;;;;;;5074261;28;20310;-90
2023/11/19 14:38:34;;;;;;;;;;;;;;;;;;5077062;28;19939;-87
2023/11/19 14:41:00;;;;;;;;;;;;;;;;;;5087805;28;20493;-87
2023/11/19 14:43:26;;;;;;;;;;;;;;;;;;5109689;28;19911;-87
2023/11/19 14:45:52;;;;;;;;;;;;;;;;;;5082343;28;19999;-87
2023/11/19 14:48:18;;;;;;;;;;;;;;;;;;5102928;28;19954;-87
2023/11/19 14:50:46;;;;;;;;;;;;;;;;;;5081639;28;19951;-87
2023/11/19 14:53:12;;;;;;;;;;;;;;;;;;5101585;28;20005;-90
2023/11/19 14:55:38;;;;;;;;;;;;;;;;;;5083821;28;20458;-86
2023/11/19 14:58:05;;;;;;;;;;;;;;;;;;5085883;28;20360;-85
2023/11/19 15:00:31;;;;;;;;;;;;;;;;;;5086124;28;19912;-85
2023/11/19 15:02:57;;;;;;;;;;;;;;;;;;5068450;28;19943;-81
2023/11/19 15:05:23;;;;;;;;;;;;;;;;;;5076276;28;20007;-83
2023/11/19 15:07:49;;;;;;;;;;;;;;;;;;5096780;28;20022;-82
2023/11/19 15:10:15;;;;;;;;;;;;;;;;;;5091563;28;20077;-82
2023/11/19 15:12:41;;;;;;;;;;;;;;;;;;5093711;28;19974;-83
2023/11/19 15:15:08;;;;;;;;;;;;;;;;;;5092684;28;19908;-83
2023/11/19 15:17:34;;;;;;;;;;;;;;;;;;5097936;28;19912;-83
2023/11/19 15:20:00;;;;;;;;;;;;;;;;;;5094555;28;19956;-82
2023/11/19 15:22:26;;;;;;;;;;;;;;;;;;5082640;28;19912;-83
2023/11/19 15:24:52;;;;;;;;;;;;;;;;;;5084319;28;20310;-85
2023/11/19 15:27:18;;;;;;;;;;;;;;;;;;5081438;28;20347;-83
2023/11/19 15:29:44;;;;;;;;;;;;;;;;;;5079727;28;19959;-84
2023/11/19 15:32:10;;;;;;;;;;;;;;;;;;5057867;28;19963;-84
2023/11/19 15:34:37;;;;;;;;;;;;;;;;;;5084148;28;19923;-82
2023/11/19 15:37:04;;;;;;;;;;;;;;;;;;5058552;28;19912;-82
2023/11/19 15:39:30;;;;;;;;;;;;;;;;;;5087246;28;20299;-84
2023/11/19 15:41:58;;;;;;;;;;;;;;;;;;5069421;28;20514;-85
2023/11/19 15:44:24;;;;;;;;;;;;;;;;;;5079079;28;20385;-83
2023/11/19 15:46:50;;;;;;;;;;;;;;;;;;5085780;28;20006;-85
2023/11/19 15:49:16;;;;;;;;;;;;;;;;;;5077877;28;20003;-83
2023/11/19 15:51:42;;;;;;;;;;;;;;;;;;5084125;28;19946;-83
2023/11/19 15:54:08;;;;;;;;;;;;;;;;;;5076700;28;19963;-86
2023/11/19 15:56:34;;;;;;;;;;;;;;;;;;5054730;28;19966;-87
2023/11/19 15:59:00;;;;;;;;;;;;;;;;;;5057942;28;19955;-86
2023/11/19 16:01:28;;;;;;;;;;;;;;;;;;5081877;28;19950;-88
2023/11/19 16:03:53;;;;;;;;;;;;;;;;;;5079897;28;19955;-86
2023/11/19 16:06:20;;;;;;;;;;;;;;;;;;5084009;28;19959;-86
2023/11/19 16:08:46;;;;;;;;;;;;;;;;;;5091595;28;19943;-87
2023/11/19 16:11:13;;;;;;;;;;;;;;;;;;5083644;28;20020;-87
2023/11/19 16:13:38;;;;;;;;;;;;;;;;;;5083795;28;19947;-87
2023/11/19 16:16:04;;;;;;;;;;;;;;;;;;5086789;28;20334;-88
2023/11/19 16:18:32;;;;;;;;;;;;;;;;;;5091653;28;19930;-87
2023/11/19 16:20:58;;;;;;;;;;;;;;;;;;5079757;28;20007;-89
2023/11/19 16:23:24;;;;;;;;;;;;;;;;;;5080888;28;19992;-87
2023/11/19 16:25:49;;;;;;;;;;;;;;;;;;5061826;28;19987;-88
2023/11/19 16:28:17;;;;;;;;;;;;;;;;;;5080525;28;19974;-85
2023/11/19 16:30:43;;;;;;;;;;;;;;;;;;5088769;28;20394;-89
2023/11/19 16:33:09;;;;;;;;;;;;;;;;;;5068398;28;19947;-85
2023/11/19 16:35:34;;;;;;;;;;;;;;;;;;5081279;28;19944;-86
2023/11/19 16:38:06;;;;;;;;;;;;;;;;;;5088663;28;20370;-83